sensor_id;sensor_type;location;lat;lon;timestamp;temperature;humidity
43346;DHT22;28937;51.160;4.146;2022-07-03T00:01:41;22.70;74.20
43346;DHT22;28937;51.160;4.146;2022-07-03T00:04:06;22.70;74.80
43346;DHT22;28937;51.160;4.146;2022-07-03T00:06:32;22.60;74.20
43346;DHT22;28937;51.160;4.146;2022-07-03T00:08:59;22.60;74.30
43346;DHT22;28937;51.160;4.146;2022-07-03T00:11:25;22.50;74.30
43346;DHT22;28937;51.160;4.146;2022-07-03T00:13:51;22.50;74.30
43346;DHT22;28937;51.160;4.146;2022-07-03T00:16:17;22.50;74.20
43346;DHT22;28937;51.160;4.146;2022-07-03T00:18:43;22.50;74.20
43346;DHT22;28937;51.160;4.146;2022-07-03T00:21:09;22.50;74.20
43346;DHT22;28937;51.160;4.146;2022-07-03T00:24:06;22.40;74.00
43346;DHT22;28937;51.160;4.146;2022-07-03T00:26:34;22.40;74.10
43346;DHT22;28937;51.160;4.146;2022-07-03T00:29:03;22.40;74.00
43346;DHT22;28937;51.160;4.146;2022-07-03T00:31:31;22.40;73.90
43346;DHT22;28937;51.160;4.146;2022-07-03T00:33:58;22.30;73.70
43346;DHT22;28937;51.160;4.146;2022-07-03T00:36:26;22.30;73.60
43346;DHT22;28937;51.160;4.146;2022-07-03T00:38:54;22.30;73.50
43346;DHT22;28937;51.160;4.146;2022-07-03T00:41:28;22.30;73.20
43346;DHT22;28937;51.160;4.146;2022-07-03T00:43:54;22.20;73.00
43346;DHT22;28937;51.160;4.146;2022-07-03T00:46:24;22.20;72.70
43346;DHT22;28937;51.160;4.146;2022-07-03T00:48:51;22.20;72.70
43346;DHT22;28937;51.160;4.146;2022-07-03T00:51:25;22.20;72.20
43346;DHT22;28937;51.160;4.146;2022-07-03T00:53:53;22.20;72.00
43346;DHT22;28937;51.160;4.146;2022-07-03T00:56:24;22.20;72.20
43346;DHT22;28937;51.160;4.146;2022-07-03T00:58:53;22.10;71.40
43346;DHT22;28937;51.160;4.146;2022-07-03T01:01:20;22.20;71.30
43346;DHT22;28937;51.160;4.146;2022-07-03T01:03:48;22.20;70.80
43346;DHT22;28937;51.160;4.146;2022-07-03T01:06:19;22.10;70.60
43346;DHT22;28937;51.160;4.146;2022-07-03T01:08:49;22.10;70.50
43346;DHT22;28937;51.160;4.146;2022-07-03T01:11:25;22.10;70.30
43346;DHT22;28937;51.160;4.146;2022-07-03T01:13:57;22.10;70.30
43346;DHT22;28937;51.160;4.146;2022-07-03T01:30:33;22.00;70.30
43346;DHT22;28937;51.160;4.146;2022-07-03T01:33:09;21.90;70.30
43346;DHT22;28937;51.160;4.146;2022-07-03T01:35:40;21.90;70.20
43346;DHT22;28937;51.160;4.146;2022-07-03T01:38:11;21.90;70.10
43346;DHT22;28937;51.160;4.146;2022-07-03T01:40:40;21.80;70.60
43346;DHT22;28937;51.160;4.146;2022-07-03T01:43:10;21.90;69.90
43346;DHT22;28937;51.160;4.146;2022-07-03T01:45:42;21.90;70.10
43346;DHT22;28937;51.160;4.146;2022-07-03T01:48:09;21.90;70.40
43346;DHT22;28937;51.160;4.146;2022-07-03T01:50:37;21.90;70.50
43346;DHT22;28937;51.160;4.146;2022-07-03T01:53:03;21.80;70.60
43346;DHT22;28937;51.160;4.146;2022-07-03T01:55:32;21.80;70.70
43346;DHT22;28937;51.160;4.146;2022-07-03T01:57:58;21.80;71.60
43346;DHT22;28937;51.160;4.146;2022-07-03T02:00:24;21.70;71.10
43346;DHT22;28937;51.160;4.146;2022-07-03T02:11:11;21.70;71.40
43346;DHT22;28937;51.160;4.146;2022-07-03T02:13:41;21.70;71.40
43346;DHT22;28937;51.160;4.146;2022-07-03T02:16:08;21.60;71.20
43346;DHT22;28937;51.160;4.146;2022-07-03T02:18:38;21.60;71.30
43346;DHT22;28937;51.160;4.146;2022-07-03T02:21:10;21.60;71.40
43346;DHT22;28937;51.160;4.146;2022-07-03T02:24:03;21.60;71.40
43346;DHT22;28937;51.160;4.146;2022-07-03T02:26:40;21.50;71.20
43346;DHT22;28937;51.160;4.146;2022-07-03T02:29:10;21.50;71.10
43346;DHT22;28937;51.160;4.146;2022-07-03T02:31:42;21.40;70.90
43346;DHT22;28937;51.160;4.146;2022-07-03T02:34:15;21.40;71.00
43346;DHT22;28937;51.160;4.146;2022-07-03T02:36:45;21.50;71.00
43346;DHT22;28937;51.160;4.146;2022-07-03T02:39:20;21.40;70.70
43346;DHT22;28937;51.160;4.146;2022-07-03T02:41:53;21.40;70.50
43346;DHT22;28937;51.160;4.146;2022-07-03T02:47:03;21.40;70.30
43346;DHT22;28937;51.160;4.146;2022-07-03T02:52:33;21.30;70.10
43346;DHT22;28937;51.160;4.146;2022-07-03T02:57:51;21.30;70.40
43346;DHT22;28937;51.160;4.146;2022-07-03T03:00:21;21.30;70.20
43346;DHT22;28937;51.160;4.146;2022-07-03T03:02:56;21.30;70.30
43346;DHT22;28937;51.160;4.146;2022-07-03T03:10:48;21.20;70.40
43346;DHT22;28937;51.160;4.146;2022-07-03T03:13:16;21.20;70.40
43346;DHT22;28937;51.160;4.146;2022-07-03T03:18:29;21.20;70.50
43346;DHT22;28937;51.160;4.146;2022-07-03T03:20:58;21.10;70.40
43346;DHT22;28937;51.160;4.146;2022-07-03T03:23:36;21.20;70.70
43346;DHT22;28937;51.160;4.146;2022-07-03T03:26:03;21.10;70.70
43346;DHT22;28937;51.160;4.146;2022-07-03T03:28:30;21.10;70.90
43346;DHT22;28937;51.160;4.146;2022-07-03T03:30:56;21.10;71.10
43346;DHT22;28937;51.160;4.146;2022-07-03T03:33:22;21.10;71.10
43346;DHT22;28937;51.160;4.146;2022-07-03T03:35:48;21.00;71.20
43346;DHT22;28937;51.160;4.146;2022-07-03T03:38:13;21.10;71.50
43346;DHT22;28937;51.160;4.146;2022-07-03T03:40:40;21.10;71.60
43346;DHT22;28937;51.160;4.146;2022-07-03T03:43:05;21.00;71.70
43346;DHT22;28937;51.160;4.146;2022-07-03T03:45:31;21.00;71.80
43346;DHT22;28937;51.160;4.146;2022-07-03T03:47:57;21.00;72.00
43346;DHT22;28937;51.160;4.146;2022-07-03T03:50:24;21.00;72.20
43346;DHT22;28937;51.160;4.146;2022-07-03T03:52:50;21.00;72.40
43346;DHT22;28937;51.160;4.146;2022-07-03T03:55:15;21.00;72.60
43346;DHT22;28937;51.160;4.146;2022-07-03T03:57:41;21.00;72.80
43346;DHT22;28937;51.160;4.146;2022-07-03T04:00:07;20.90;73.60
43346;DHT22;28937;51.160;4.146;2022-07-03T04:02:33;20.90;73.10
43346;DHT22;28937;51.160;4.146;2022-07-03T04:04:59;20.90;73.20
43346;DHT22;28937;51.160;4.146;2022-07-03T04:07:25;20.90;73.40
43346;DHT22;28937;51.160;4.146;2022-07-03T04:09:50;20.90;73.50
43346;DHT22;28937;51.160;4.146;2022-07-03T04:12:16;20.90;73.70
43346;DHT22;28937;51.160;4.146;2022-07-03T04:14:41;20.90;73.80
43346;DHT22;28937;51.160;4.146;2022-07-03T04:17:07;20.90;73.70
43346;DHT22;28937;51.160;4.146;2022-07-03T04:19:33;20.90;73.80
43346;DHT22;28937;51.160;4.146;2022-07-03T04:21:59;20.80;73.80
43346;DHT22;28937;51.160;4.146;2022-07-03T04:24:24;20.80;73.90
43346;DHT22;28937;51.160;4.146;2022-07-03T04:26:50;20.80;74.20
43346;DHT22;28937;51.160;4.146;2022-07-03T04:29:15;20.80;74.30
43346;DHT22;28937;51.160;4.146;2022-07-03T04:31:41;20.80;74.40
43346;DHT22;28937;51.160;4.146;2022-07-03T04:34:07;20.70;74.60
43346;DHT22;28937;51.160;4.146;2022-07-03T04:36:32;20.80;74.90
43346;DHT22;28937;51.160;4.146;2022-07-03T04:38:58;20.80;75.10
43346;DHT22;28937;51.160;4.146;2022-07-03T04:41:23;20.80;75.20
43346;DHT22;28937;51.160;4.146;2022-07-03T04:43:49;20.80;75.30
43346;DHT22;28937;51.160;4.146;2022-07-03T04:46:15;20.80;75.30
43346;DHT22;28937;51.160;4.146;2022-07-03T04:48:40;20.80;75.70
43346;DHT22;28937;51.160;4.146;2022-07-03T04:51:06;20.80;75.80
43346;DHT22;28937;51.160;4.146;2022-07-03T04:53:31;20.80;76.00
43346;DHT22;28937;51.160;4.146;2022-07-03T04:55:57;20.80;76.00
43346;DHT22;28937;51.160;4.146;2022-07-03T04:58:22;20.90;76.60
43346;DHT22;28937;51.160;4.146;2022-07-03T05:00:48;20.90;76.40
43346;DHT22;28937;51.160;4.146;2022-07-03T05:03:14;20.90;76.80
43346;DHT22;28937;51.160;4.146;2022-07-03T05:05:40;20.90;76.90
43346;DHT22;28937;51.160;4.146;2022-07-03T05:08:05;20.90;77.20
43346;DHT22;28937;51.160;4.146;2022-07-03T05:10:31;21.00;77.30
43346;DHT22;28937;51.160;4.146;2022-07-03T05:12:57;21.00;77.40
43346;DHT22;28937;51.160;4.146;2022-07-03T05:15:22;21.00;77.90
43346;DHT22;28937;51.160;4.146;2022-07-03T05:17:49;21.00;77.90
43346;DHT22;28937;51.160;4.146;2022-07-03T05:20:14;21.00;77.70
43346;DHT22;28937;51.160;4.146;2022-07-03T05:23:00;21.00;77.70
43346;DHT22;28937;51.160;4.146;2022-07-03T05:25:27;21.00;77.80
43346;DHT22;28937;51.160;4.146;2022-07-03T05:27:54;21.00;77.80
43346;DHT22;28937;51.160;4.146;2022-07-03T05:30:23;21.00;77.80
43346;DHT22;28937;51.160;4.146;2022-07-03T05:32:50;21.00;78.00
43346;DHT22;28937;51.160;4.146;2022-07-03T05:35:15;21.00;78.50
43346;DHT22;28937;51.160;4.146;2022-07-03T05:37:41;21.00;78.50
43346;DHT22;28937;51.160;4.146;2022-07-03T05:40:08;21.00;78.80
43346;DHT22;28937;51.160;4.146;2022-07-03T05:42:34;21.00;79.20
43346;DHT22;28937;51.160;4.146;2022-07-03T05:45:00;21.00;78.80
43346;DHT22;28937;51.160;4.146;2022-07-03T05:47:26;21.00;78.60
43346;DHT22;28937;51.160;4.146;2022-07-03T05:49:51;21.10;78.60
43346;DHT22;28937;51.160;4.146;2022-07-03T05:52:17;21.10;79.10
43346;DHT22;28937;51.160;4.146;2022-07-03T05:54:43;21.20;80.00
43346;DHT22;28937;51.160;4.146;2022-07-03T05:57:08;21.20;80.60
43346;DHT22;28937;51.160;4.146;2022-07-03T05:59:34;21.30;81.00
43346;DHT22;28937;51.160;4.146;2022-07-03T06:02:00;21.30;81.00
43346;DHT22;28937;51.160;4.146;2022-07-03T06:04:26;21.40;80.90
43346;DHT22;28937;51.160;4.146;2022-07-03T06:06:52;21.50;80.80
43346;DHT22;28937;51.160;4.146;2022-07-03T06:09:17;21.50;80.30
43346;DHT22;28937;51.160;4.146;2022-07-03T06:11:43;21.60;80.20
43346;DHT22;28937;51.160;4.146;2022-07-03T06:14:09;21.60;79.80
43346;DHT22;28937;51.160;4.146;2022-07-03T06:16:34;21.70;79.40
43346;DHT22;28937;51.160;4.146;2022-07-03T06:19:00;21.70;79.30
43346;DHT22;28937;51.160;4.146;2022-07-03T06:21:25;21.80;79.10
43346;DHT22;28937;51.160;4.146;2022-07-03T06:23:51;21.70;79.00
43346;DHT22;28937;51.160;4.146;2022-07-03T06:26:17;21.80;79.10
43346;DHT22;28937;51.160;4.146;2022-07-03T06:28:43;21.80;78.80
43346;DHT22;28937;51.160;4.146;2022-07-03T06:31:08;21.90;79.10
43346;DHT22;28937;51.160;4.146;2022-07-03T06:33:34;21.90;79.40
43346;DHT22;28937;51.160;4.146;2022-07-03T06:36:00;21.90;79.70
43346;DHT22;28937;51.160;4.146;2022-07-03T06:38:26;22.00;79.40
43346;DHT22;28937;51.160;4.146;2022-07-03T06:40:51;22.00;79.60
43346;DHT22;28937;51.160;4.146;2022-07-03T06:43:17;22.00;79.10
43346;DHT22;28937;51.160;4.146;2022-07-03T06:45:43;22.10;79.60
43346;DHT22;28937;51.160;4.146;2022-07-03T06:48:08;22.10;79.10
43346;DHT22;28937;51.160;4.146;2022-07-03T06:50:34;22.10;79.60
43346;DHT22;28937;51.160;4.146;2022-07-03T06:52:59;22.20;79.40
43346;DHT22;28937;51.160;4.146;2022-07-03T06:55:26;22.20;79.70
43346;DHT22;28937;51.160;4.146;2022-07-03T06:57:51;22.20;79.50
43346;DHT22;28937;51.160;4.146;2022-07-03T07:00:17;22.30;79.30
43346;DHT22;28937;51.160;4.146;2022-07-03T07:02:43;22.30;79.30
43346;DHT22;28937;51.160;4.146;2022-07-03T07:05:08;22.30;78.80
43346;DHT22;28937;51.160;4.146;2022-07-03T07:07:34;22.40;78.50
43346;DHT22;28937;51.160;4.146;2022-07-03T07:10:00;22.40;78.50
43346;DHT22;28937;51.160;4.146;2022-07-03T07:12:25;22.40;78.80
43346;DHT22;28937;51.160;4.146;2022-07-03T07:14:51;22.40;78.70
43346;DHT22;28937;51.160;4.146;2022-07-03T07:17:17;22.50;78.40
43346;DHT22;28937;51.160;4.146;2022-07-03T07:19:42;22.50;78.50
43346;DHT22;28937;51.160;4.146;2022-07-03T07:22:08;22.50;78.30
43346;DHT22;28937;51.160;4.146;2022-07-03T07:24:33;22.60;78.50
43346;DHT22;28937;51.160;4.146;2022-07-03T07:26:59;22.60;78.00
43346;DHT22;28937;51.160;4.146;2022-07-03T07:29:25;22.70;77.60
43346;DHT22;28937;51.160;4.146;2022-07-03T07:31:50;22.70;77.30
43346;DHT22;28937;51.160;4.146;2022-07-03T07:34:16;22.70;77.50
43346;DHT22;28937;51.160;4.146;2022-07-03T07:36:42;22.70;77.10
43346;DHT22;28937;51.160;4.146;2022-07-03T07:39:08;22.70;77.10
43346;DHT22;28937;51.160;4.146;2022-07-03T07:41:35;22.80;77.10
43346;DHT22;28937;51.160;4.146;2022-07-03T07:44:01;22.80;77.10
43346;DHT22;28937;51.160;4.146;2022-07-03T07:46:26;22.80;77.20
43346;DHT22;28937;51.160;4.146;2022-07-03T07:48:52;22.80;77.00
43346;DHT22;28937;51.160;4.146;2022-07-03T07:51:17;22.80;77.30
43346;DHT22;28937;51.160;4.146;2022-07-03T07:53:43;22.90;77.60
43346;DHT22;28937;51.160;4.146;2022-07-03T07:56:09;22.90;76.80
43346;DHT22;28937;51.160;4.146;2022-07-03T07:58:35;23.00;76.70
43346;DHT22;28937;51.160;4.146;2022-07-03T08:01:00;23.00;76.60
43346;DHT22;28937;51.160;4.146;2022-07-03T08:03:45;23.00;76.10
43346;DHT22;28937;51.160;4.146;2022-07-03T08:06:29;23.10;76.10
43346;DHT22;28937;51.160;4.146;2022-07-03T08:08:55;23.10;76.00
43346;DHT22;28937;51.160;4.146;2022-07-03T08:11:21;23.20;75.90
43346;DHT22;28937;51.160;4.146;2022-07-03T08:13:46;23.20;76.10
43346;DHT22;28937;51.160;4.146;2022-07-03T08:16:13;23.20;76.10
43346;DHT22;28937;51.160;4.146;2022-07-03T08:18:39;23.20;75.70
43346;DHT22;28937;51.160;4.146;2022-07-03T08:21:04;23.20;75.40
43346;DHT22;28937;51.160;4.146;2022-07-03T08:23:30;23.20;75.40
43346;DHT22;28937;51.160;4.146;2022-07-03T08:25:55;23.20;75.20
43346;DHT22;28937;51.160;4.146;2022-07-03T08:28:21;23.20;75.10
43346;DHT22;28937;51.160;4.146;2022-07-03T08:30:46;23.30;75.50
43346;DHT22;28937;51.160;4.146;2022-07-03T08:33:12;23.30;75.50
43346;DHT22;28937;51.160;4.146;2022-07-03T08:35:38;23.40;74.90
43346;DHT22;28937;51.160;4.146;2022-07-03T08:38:03;23.40;74.20
43346;DHT22;28937;51.160;4.146;2022-07-03T08:40:29;23.40;74.30
43346;DHT22;28937;51.160;4.146;2022-07-03T08:42:58;23.40;74.40
43346;DHT22;28937;51.160;4.146;2022-07-03T08:45:24;23.40;74.50
43346;DHT22;28937;51.160;4.146;2022-07-03T08:47:53;23.40;74.50
43346;DHT22;28937;51.160;4.146;2022-07-03T08:50:20;23.50;74.60
43346;DHT22;28937;51.160;4.146;2022-07-03T08:52:46;23.40;74.20
43346;DHT22;28937;51.160;4.146;2022-07-03T08:55:13;23.40;74.20
43346;DHT22;28937;51.160;4.146;2022-07-03T08:57:40;23.50;73.80
43346;DHT22;28937;51.160;4.146;2022-07-03T09:00:09;23.50;73.80
43346;DHT22;28937;51.160;4.146;2022-07-03T09:02:35;23.50;73.40
43346;DHT22;28937;51.160;4.146;2022-07-03T09:05:02;23.50;73.60
43346;DHT22;28937;51.160;4.146;2022-07-03T09:07:35;23.60;73.80
43346;DHT22;28937;51.160;4.146;2022-07-03T09:10:06;23.60;73.80
43346;DHT22;28937;51.160;4.146;2022-07-03T09:12:32;23.60;73.90
43346;DHT22;28937;51.160;4.146;2022-07-03T09:15:02;23.60;73.90
43346;DHT22;28937;51.160;4.146;2022-07-03T09:17:28;23.60;73.90
43346;DHT22;28937;51.160;4.146;2022-07-03T09:19:54;23.60;73.90
43346;DHT22;28937;51.160;4.146;2022-07-03T09:22:27;23.60;73.90
43346;DHT22;28937;51.160;4.146;2022-07-03T09:25:02;23.70;73.80
43346;DHT22;28937;51.160;4.146;2022-07-03T09:27:29;23.70;72.30
43346;DHT22;28937;51.160;4.146;2022-07-03T09:32:42;23.70;73.50
43346;DHT22;28937;51.160;4.146;2022-07-03T09:35:25;23.80;73.60
43346;DHT22;28937;51.160;4.146;2022-07-03T09:37:58;23.70;73.20
43346;DHT22;28937;51.160;4.146;2022-07-03T09:40:26;23.80;73.30
43346;DHT22;28937;51.160;4.146;2022-07-03T09:43:05;23.80;72.80
43346;DHT22;28937;51.160;4.146;2022-07-03T09:45:59;23.80;72.80
43346;DHT22;28937;51.160;4.146;2022-07-03T09:48:30;23.80;72.90
43346;DHT22;28937;51.160;4.146;2022-07-03T09:53:54;23.80;73.00
43346;DHT22;28937;51.160;4.146;2022-07-03T09:56:23;23.80;72.60
43346;DHT22;28937;51.160;4.146;2022-07-03T09:59:08;23.80;72.60
43346;DHT22;28937;51.160;4.146;2022-07-03T10:01:42;23.80;72.50
43346;DHT22;28937;51.160;4.146;2022-07-03T10:04:12;23.80;72.30
43346;DHT22;28937;51.160;4.146;2022-07-03T10:06:50;23.80;71.80
43346;DHT22;28937;51.160;4.146;2022-07-03T10:09:19;23.90;71.50
43346;DHT22;28937;51.160;4.146;2022-07-03T10:11:45;23.90;71.30
43346;DHT22;28937;51.160;4.146;2022-07-03T10:14:23;23.90;71.50
43346;DHT22;28937;51.160;4.146;2022-07-03T10:16:49;23.90;71.50
43346;DHT22;28937;51.160;4.146;2022-07-03T10:19:23;23.90;71.30
43346;DHT22;28937;51.160;4.146;2022-07-03T10:21:58;23.90;71.40
43346;DHT22;28937;51.160;4.146;2022-07-03T10:24:27;23.80;71.50
43346;DHT22;28937;51.160;4.146;2022-07-03T10:26:54;23.80;71.60
43346;DHT22;28937;51.160;4.146;2022-07-03T10:29:25;23.90;71.40
43346;DHT22;28937;51.160;4.146;2022-07-03T10:31:51;23.80;71.50
43346;DHT22;28937;51.160;4.146;2022-07-03T10:34:22;23.90;71.30
43346;DHT22;28937;51.160;4.146;2022-07-03T10:37:08;23.80;71.70
43346;DHT22;28937;51.160;4.146;2022-07-03T10:39:48;23.90;72.50
43346;DHT22;28937;51.160;4.146;2022-07-03T10:42:22;23.90;73.20
43346;DHT22;28937;51.160;4.146;2022-07-03T10:45:10;24.00;73.90
43346;DHT22;28937;51.160;4.146;2022-07-03T10:47:44;24.00;76.80
43346;DHT22;28937;51.160;4.146;2022-07-03T10:50:15;24.00;78.80
43346;DHT22;28937;51.160;4.146;2022-07-03T10:52:41;24.00;78.00
43346;DHT22;28937;51.160;4.146;2022-07-03T10:55:08;23.90;78.00
43346;DHT22;28937;51.160;4.146;2022-07-03T10:57:36;24.00;79.20
43346;DHT22;28937;51.160;4.146;2022-07-03T11:02:45;23.90;77.80
43346;DHT22;28937;51.160;4.146;2022-07-03T11:15:50;24.10;72.80
43346;DHT22;28937;51.160;4.146;2022-07-03T11:18:30;24.10;72.00
43346;DHT22;28937;51.160;4.146;2022-07-03T11:24:22;24.00;72.30
43346;DHT22;28937;51.160;4.146;2022-07-03T11:27:12;24.10;69.70
43346;DHT22;28937;51.160;4.146;2022-07-03T11:29:38;24.20;70.80
43346;DHT22;28937;51.160;4.146;2022-07-03T11:35:07;24.10;70.70
43346;DHT22;28937;51.160;4.146;2022-07-03T11:37:32;24.10;70.20
43346;DHT22;28937;51.160;4.146;2022-07-03T11:40:02;24.10;69.80
43346;DHT22;28937;51.160;4.146;2022-07-03T11:42:34;24.10;69.30
43346;DHT22;28937;51.160;4.146;2022-07-03T11:45:00;24.10;69.30
43346;DHT22;28937;51.160;4.146;2022-07-03T11:47:26;24.10;68.70
43346;DHT22;28937;51.160;4.146;2022-07-03T11:49:51;24.20;68.10
43346;DHT22;28937;51.160;4.146;2022-07-03T11:52:32;24.20;68.90
43346;DHT22;28937;51.160;4.146;2022-07-03T11:54:58;24.10;69.30
43346;DHT22;28937;51.160;4.146;2022-07-03T11:57:24;24.10;67.90
43346;DHT22;28937;51.160;4.146;2022-07-03T11:59:51;24.10;67.50
43346;DHT22;28937;51.160;4.146;2022-07-03T12:02:19;24.00;67.30
43346;DHT22;28937;51.160;4.146;2022-07-03T12:04:45;24.10;67.20
43346;DHT22;28937;51.160;4.146;2022-07-03T12:07:10;24.10;66.40
43346;DHT22;28937;51.160;4.146;2022-07-03T12:09:36;24.10;65.70
43346;DHT22;28937;51.160;4.146;2022-07-03T12:14:55;24.10;65.40
43346;DHT22;28937;51.160;4.146;2022-07-03T12:17:23;24.10;65.60
43346;DHT22;28937;51.160;4.146;2022-07-03T12:22:29;24.10;65.60
43346;DHT22;28937;51.160;4.146;2022-07-03T12:25:00;24.10;66.30
43346;DHT22;28937;51.160;4.146;2022-07-03T12:27:27;24.10;66.40
43346;DHT22;28937;51.160;4.146;2022-07-03T12:29:53;24.10;66.40
43346;DHT22;28937;51.160;4.146;2022-07-03T12:32:19;24.10;65.90
43346;DHT22;28937;51.160;4.146;2022-07-03T12:34:48;24.10;66.70
43346;DHT22;28937;51.160;4.146;2022-07-03T12:37:13;24.10;66.90
43346;DHT22;28937;51.160;4.146;2022-07-03T12:39:47;24.10;66.90
43346;DHT22;28937;51.160;4.146;2022-07-03T12:42:17;24.20;66.60
43346;DHT22;28937;51.160;4.146;2022-07-03T12:45:03;24.10;66.40
43346;DHT22;28937;51.160;4.146;2022-07-03T12:47:30;24.20;66.50
43346;DHT22;28937;51.160;4.146;2022-07-03T12:50:00;24.10;66.50
43346;DHT22;28937;51.160;4.146;2022-07-03T12:52:27;24.10;66.40
43346;DHT22;28937;51.160;4.146;2022-07-03T12:54:54;24.10;66.40
43346;DHT22;28937;51.160;4.146;2022-07-03T12:57:22;24.10;66.40
43346;DHT22;28937;51.160;4.146;2022-07-03T13:00:07;24.10;66.10
43346;DHT22;28937;51.160;4.146;2022-07-03T13:02:34;24.20;65.70
43346;DHT22;28937;51.160;4.146;2022-07-03T13:05:01;24.20;65.80
43346;DHT22;28937;51.160;4.146;2022-07-03T13:07:30;24.20;65.80
43346;DHT22;28937;51.160;4.146;2022-07-03T13:09:59;24.20;65.60
43346;DHT22;28937;51.160;4.146;2022-07-03T13:12:25;24.20;65.70
43346;DHT22;28937;51.160;4.146;2022-07-03T13:14:58;24.30;66.20
43346;DHT22;28937;51.160;4.146;2022-07-03T13:20:18;24.30;65.20
43346;DHT22;28937;51.160;4.146;2022-07-03T13:22:43;24.20;64.90
43346;DHT22;28937;51.160;4.146;2022-07-03T13:25:10;24.20;64.50
43346;DHT22;28937;51.160;4.146;2022-07-03T13:27:35;24.30;64.10
43346;DHT22;28937;51.160;4.146;2022-07-03T13:30:01;24.30;63.80
43346;DHT22;28937;51.160;4.146;2022-07-03T13:32:27;24.30;63.80
43346;DHT22;28937;51.160;4.146;2022-07-03T13:34:52;24.30;63.30
43346;DHT22;28937;51.160;4.146;2022-07-03T13:37:18;24.30;63.60
43346;DHT22;28937;51.160;4.146;2022-07-03T13:39:43;24.30;63.90
43346;DHT22;28937;51.160;4.146;2022-07-03T13:42:09;24.40;62.50
43346;DHT22;28937;51.160;4.146;2022-07-03T13:44:36;24.40;63.10
43346;DHT22;28937;51.160;4.146;2022-07-03T13:47:03;24.40;63.10
43346;DHT22;28937;51.160;4.146;2022-07-03T13:49:31;24.40;63.70
43346;DHT22;28937;51.160;4.146;2022-07-03T13:51:56;24.40;63.10
43346;DHT22;28937;51.160;4.146;2022-07-03T13:54:22;24.50;62.40
43346;DHT22;28937;51.160;4.146;2022-07-03T13:56:48;24.50;61.50
43346;DHT22;28937;51.160;4.146;2022-07-03T13:59:13;24.50;62.90
43346;DHT22;28937;51.160;4.146;2022-07-03T14:01:39;24.50;62.70
43346;DHT22;28937;51.160;4.146;2022-07-03T14:04:05;24.50;61.50
43346;DHT22;28937;51.160;4.146;2022-07-03T14:06:30;24.50;62.10
43346;DHT22;28937;51.160;4.146;2022-07-03T14:08:56;24.50;62.80
43346;DHT22;28937;51.160;4.146;2022-07-03T14:11:21;24.50;63.20
43346;DHT22;28937;51.160;4.146;2022-07-03T14:13:47;24.60;63.20
43346;DHT22;28937;51.160;4.146;2022-07-03T14:16:13;24.60;63.20
43346;DHT22;28937;51.160;4.146;2022-07-03T14:18:38;24.60;62.80
43346;DHT22;28937;51.160;4.146;2022-07-03T14:21:04;24.60;62.80
43346;DHT22;28937;51.160;4.146;2022-07-03T14:23:32;24.70;63.40
43346;DHT22;28937;51.160;4.146;2022-07-03T14:25:58;24.60;64.40
43346;DHT22;28937;51.160;4.146;2022-07-03T14:28:24;24.60;64.50
43346;DHT22;28937;51.160;4.146;2022-07-03T14:31:09;24.60;64.80
43346;DHT22;28937;51.160;4.146;2022-07-03T14:33:50;24.60;64.20
43346;DHT22;28937;51.160;4.146;2022-07-03T14:36:16;24.60;63.50
43346;DHT22;28937;51.160;4.146;2022-07-03T14:38:43;24.60;64.20
43346;DHT22;28937;51.160;4.146;2022-07-03T14:41:08;24.60;64.10
43346;DHT22;28937;51.160;4.146;2022-07-03T14:43:34;24.60;64.60
43346;DHT22;28937;51.160;4.146;2022-07-03T14:45:59;24.60;64.80
43346;DHT22;28937;51.160;4.146;2022-07-03T14:48:25;24.60;64.50
43346;DHT22;28937;51.160;4.146;2022-07-03T14:50:51;24.60;63.60
43346;DHT22;28937;51.160;4.146;2022-07-03T14:53:21;24.70;64.50
43346;DHT22;28937;51.160;4.146;2022-07-03T14:55:48;24.70;65.30
43346;DHT22;28937;51.160;4.146;2022-07-03T15:00:45;24.70;64.70
43346;DHT22;28937;51.160;4.146;2022-07-03T15:03:16;24.70;64.50
43346;DHT22;28937;51.160;4.146;2022-07-03T15:05:42;24.70;64.40
43346;DHT22;28937;51.160;4.146;2022-07-03T15:11:14;24.80;63.80
43346;DHT22;28937;51.160;4.146;2022-07-03T15:14:04;24.70;62.40
43346;DHT22;28937;51.160;4.146;2022-07-03T15:16:33;24.80;62.00
43346;DHT22;28937;51.160;4.146;2022-07-03T15:19:00;24.80;62.30
43346;DHT22;28937;51.160;4.146;2022-07-03T15:21:30;24.80;62.80
43346;DHT22;28937;51.160;4.146;2022-07-03T15:24:02;24.80;64.00
43346;DHT22;28937;51.160;4.146;2022-07-03T15:26:30;24.80;64.50
43346;DHT22;28937;51.160;4.146;2022-07-03T15:29:01;24.80;64.10
43346;DHT22;28937;51.160;4.146;2022-07-03T15:31:29;24.80;65.00
43346;DHT22;28937;51.160;4.146;2022-07-03T15:33:55;24.70;65.50
43346;DHT22;28937;51.160;4.146;2022-07-03T15:36:26;24.70;65.30
43346;DHT22;28937;51.160;4.146;2022-07-03T15:39:05;24.70;64.70
43346;DHT22;28937;51.160;4.146;2022-07-03T15:41:57;24.80;65.10
43346;DHT22;28937;51.160;4.146;2022-07-03T15:44:46;24.80;64.60
43346;DHT22;28937;51.160;4.146;2022-07-03T15:50:05;24.80;63.70
43346;DHT22;28937;51.160;4.146;2022-07-03T15:52:34;24.80;64.00
43346;DHT22;28937;51.160;4.146;2022-07-03T15:55:06;24.80;65.90
43346;DHT22;28937;51.160;4.146;2022-07-03T15:57:50;24.80;63.70
43346;DHT22;28937;51.160;4.146;2022-07-03T16:00:18;24.80;64.10
43346;DHT22;28937;51.160;4.146;2022-07-03T16:05:25;24.80;63.30
43346;DHT22;28937;51.160;4.146;2022-07-03T16:07:53;24.70;63.20
43346;DHT22;28937;51.160;4.146;2022-07-03T16:10:19;24.70;65.20
43346;DHT22;28937;51.160;4.146;2022-07-03T16:12:46;24.80;64.60
43346;DHT22;28937;51.160;4.146;2022-07-03T16:15:13;24.80;64.60
43346;DHT22;28937;51.160;4.146;2022-07-03T16:17:39;24.80;65.20
43346;DHT22;28937;51.160;4.146;2022-07-03T16:20:06;24.80;63.30
43346;DHT22;28937;51.160;4.146;2022-07-03T16:22:36;24.80;63.00
43346;DHT22;28937;51.160;4.146;2022-07-03T16:25:04;24.80;65.60
43346;DHT22;28937;51.160;4.146;2022-07-03T16:27:30;24.80;62.90
43346;DHT22;28937;51.160;4.146;2022-07-03T16:29:56;24.80;61.20
43346;DHT22;28937;51.160;4.146;2022-07-03T16:32:34;24.80;64.30
43346;DHT22;28937;51.160;4.146;2022-07-03T16:35:03;24.80;62.50
43346;DHT22;28937;51.160;4.146;2022-07-03T16:37:56;24.70;64.10
43346;DHT22;28937;51.160;4.146;2022-07-03T16:40:25;24.70;62.50
43346;DHT22;28937;51.160;4.146;2022-07-03T16:42:52;24.70;64.10
43346;DHT22;28937;51.160;4.146;2022-07-03T16:45:19;24.70;64.60
43346;DHT22;28937;51.160;4.146;2022-07-03T16:47:47;24.70;63.60
43346;DHT22;28937;51.160;4.146;2022-07-03T16:50:19;24.70;62.70
43346;DHT22;28937;51.160;4.146;2022-07-03T16:52:50;24.70;64.10
43346;DHT22;28937;51.160;4.146;2022-07-03T16:55:18;24.70;62.50
43346;DHT22;28937;51.160;4.146;2022-07-03T16:58:02;24.70;62.20
43346;DHT22;28937;51.160;4.146;2022-07-03T17:00:29;24.60;62.00
43346;DHT22;28937;51.160;4.146;2022-07-03T17:02:56;24.70;60.80